createdAt,value
2023-02-23T00:00:57.024Z,101634.56
2023-02-23T00:03:42.899Z,101639.81
2023-02-23T00:06:29.419Z,101636.53
2023-02-23T00:09:22.974Z,101644.25
2023-02-23T00:12:09.367Z,101652.13
2023-02-23T00:14:56.475Z,101651.47
2023-02-23T00:17:42.609Z,101655.13
2023-02-23T00:20:28.712Z,101645.50
2023-02-23T00:23:15.612Z,101650.03
2023-02-23T00:26:05.028Z,101648.31
2023-02-23T00:28:51.845Z,101651.97
2023-02-23T00:31:39.098Z,101661.66
2023-02-23T00:34:25.399Z,101659.03
2023-02-23T00:37:12.194Z,101662.50
2023-02-23T00:39:58.045Z,101667.78
2023-02-23T00:42:47.023Z,101673.88
2023-02-23T00:45:33.824Z,101680.91
2023-02-23T00:48:21.244Z,101677.44
2023-02-23T00:51:07.035Z,101688.06
2023-02-23T00:53:54.506Z,101689.84
2023-02-23T00:56:40.742Z,101694.91
2023-02-23T00:59:26.466Z,101705.44
2023-02-23T01:02:12.235Z,101703.47
2023-02-23T01:04:59.138Z,101704.19
2023-02-23T01:07:46.991Z,101706.81
2023-02-23T01:10:33.008Z,101711.72
2023-02-23T01:13:18.740Z,101723.75
2023-02-23T01:16:05.290Z,101721.19
2023-02-23T01:18:51.436Z,101730.50
2023-02-23T01:21:39.418Z,101731.41
2023-02-23T01:24:25.505Z,101739.38
2023-02-23T01:27:13.598Z,101747.31
2023-02-23T01:29:59.813Z,101748.44
2023-02-23T01:32:45.646Z,101752.53
2023-02-23T01:35:31.726Z,101746.22
2023-02-23T01:38:18.719Z,101749.22
2023-02-23T01:41:07.133Z,101754.13
2023-02-23T01:43:56.692Z,101755.84
2023-02-23T01:46:45.205Z,101764.22
2023-02-23T01:49:31.760Z,101767.69
2023-02-23T01:52:18.384Z,101758.84
2023-02-23T01:55:06.192Z,101758.00
2023-02-23T01:57:53.961Z,101760.53
2023-02-23T02:00:40.164Z,101755.38
2023-02-23T02:03:27.585Z,101757.72
2023-02-23T02:06:14.653Z,101767.50
2023-02-23T02:09:06.104Z,101760.53
2023-02-23T02:11:54.919Z,101761.00
2023-02-23T02:14:41.982Z,101754.72
2023-02-23T02:17:30.439Z,101767.53
2023-02-23T02:20:38.274Z,101770.81
2023-02-23T02:23:31.276Z,101757.53
2023-02-23T02:26:20.788Z,101768.47
2023-02-23T02:29:17.190Z,101763.94
2023-02-23T02:32:30.474Z,101775.06
2023-02-23T02:35:31.694Z,101771.38
2023-02-23T02:38:24.234Z,101774.97
2023-02-23T02:41:12.542Z,101777.25
2023-02-23T02:44:01.818Z,101781.50
2023-02-23T02:46:48.829Z,101780.56
2023-02-23T02:49:37.161Z,101790.81
2023-02-23T02:52:25.105Z,101785.44
2023-02-23T02:55:13.275Z,101782.72
2023-02-23T02:57:59.260Z,101778.06
2023-02-23T03:01:03.490Z,101784.88
2023-02-23T03:04:07.491Z,101781.19
2023-02-23T03:07:11.888Z,101782.59
2023-02-23T03:10:17.386Z,101789.38
2023-02-23T03:13:25.532Z,101776.91
2023-02-23T03:16:32.544Z,101770.53
2023-02-23T03:19:37.112Z,101778.25
2023-02-23T03:22:41.307Z,101776.34
2023-02-23T03:25:46.372Z,101766.53
2023-02-23T03:28:52.474Z,101771.31
2023-02-23T03:31:57.045Z,101778.97
2023-02-23T03:35:02.206Z,101779.81
2023-02-23T03:38:07.154Z,101770.94
2023-02-23T03:41:11.085Z,101762.91
2023-02-23T03:44:17.698Z,101774.41
2023-02-23T03:47:22.224Z,101768.00
2023-02-23T03:50:27.353Z,101771.38
2023-02-23T03:53:31.258Z,101774.00
2023-02-23T03:56:35.574Z,101773.06
2023-02-23T03:59:40.502Z,101767.56
2023-02-23T04:02:44.449Z,101767.56
2023-02-23T04:05:48.501Z,101764.00
2023-02-23T04:08:52.908Z,101767.38
2023-02-23T04:11:59.259Z,101767.19
2023-02-23T04:14:47.433Z,101767.19
2023-02-23T04:17:33.602Z,101776.81
2023-02-23T04:20:19.278Z,101776.50
2023-02-23T04:23:05.170Z,101780.72
2023-02-23T04:25:51.211Z,101781.69
2023-02-23T04:28:38.025Z,101776.19
2023-02-23T04:31:25.967Z,101783.06
2023-02-23T04:34:12.451Z,101769.00
2023-02-23T04:36:58.269Z,101781.28
2023-02-23T04:39:48.544Z,101777.88
2023-02-23T04:42:34.709Z,101776.72
2023-02-23T04:45:20.679Z,101778.44
2023-02-23T04:48:07.832Z,101786.28
2023-02-23T04:50:54.008Z,101774.88
2023-02-23T04:53:40.575Z,101774.56
2023-02-23T04:56:26.436Z,101771.69
2023-02-23T04:59:13.211Z,101780.47
2023-02-23T05:01:59.062Z,101778.69
2023-02-23T05:04:46.115Z,101784.59
2023-02-23T05:07:31.984Z,101781.84
2023-02-23T05:10:17.841Z,101781.84
2023-02-23T05:13:03.628Z,101775.50
2023-02-23T05:15:49.668Z,101774.59
2023-02-23T05:18:35.874Z,101771.94
2023-02-23T05:21:23.550Z,101777.03
2023-02-23T05:24:09.805Z,101772.69
2023-02-23T05:26:55.844Z,101777.03
2023-02-23T05:29:41.877Z,101775.97
2023-02-23T05:32:27.955Z,101782.84
2023-02-23T05:35:13.975Z,101779.13
2023-02-23T05:38:01.349Z,101786.13
2023-02-23T05:40:47.186Z,101775.53
2023-02-23T05:43:32.912Z,101782.53
2023-02-23T05:46:19.195Z,101783.16
2023-02-23T05:49:05.229Z,101776.19
2023-02-23T05:51:51.471Z,101780.44
2023-02-23T05:54:38.909Z,101780.34
2023-02-23T05:57:25.236Z,101779.38
2023-02-23T06:00:11.955Z,101780.22
2023-02-23T06:02:58.166Z,101781.91
2023-02-23T06:05:44.401Z,101776.63
2023-02-23T06:08:30.200Z,101782.78
2023-02-23T06:11:17.888Z,101781.06
2023-02-23T06:14:04.231Z,101785.31
2023-02-23T06:16:50.863Z,101779.06
2023-02-23T06:19:36.860Z,101782.78
2023-02-23T06:22:22.979Z,101777.47
2023-02-23T06:25:12.721Z,101782.78
2023-02-23T06:28:00.057Z,101794.19
2023-02-23T06:30:46.666Z,101786.16
2023-02-23T06:33:32.972Z,101786.38
2023-02-23T06:36:18.810Z,101795.78
2023-02-23T06:39:04.770Z,101794.09
2023-02-23T06:41:50.855Z,101794.81
2023-02-23T06:44:40.056Z,101798.41
2023-02-23T06:47:26.085Z,101792.19
2023-02-23T06:50:12.427Z,101799.16
2023-02-23T06:52:58.854Z,101797.16
2023-02-23T06:55:44.650Z,101799.91
2023-02-23T06:58:30.661Z,101801.59
2023-02-23T07:01:18.852Z,101810.25
2023-02-23T07:04:05.429Z,101817.16
2023-02-23T07:06:51.518Z,101816.22
2023-02-23T07:09:37.443Z,101814.41
2023-02-23T07:12:23.172Z,101830.16
2023-02-23T07:15:10.031Z,101823.19
2023-02-23T07:17:57.455Z,101826.69
2023-02-23T07:20:44.799Z,101827.41
2023-02-23T07:23:30.795Z,101836.09
2023-02-23T07:26:16.975Z,101840.31
2023-02-23T07:29:03.210Z,101840.22
2023-02-23T07:31:49.768Z,101844.78
2023-02-23T07:34:37.816Z,101849.84
2023-02-23T07:37:23.776Z,101854.19
2023-02-23T07:40:10.048Z,101855.88
2023-02-23T07:42:56.272Z,101852.28
2023-02-23T07:45:44.949Z,101858.31
2023-02-23T07:48:33.145Z,101852.06
2023-02-23T07:51:21.081Z,101865.94
2023-02-23T07:54:07.399Z,101861.50
2023-02-23T07:56:53.255Z,101871.88
2023-02-23T07:59:39.582Z,101869.97
2023-02-23T08:02:25.414Z,101868.91
2023-02-23T08:05:11.288Z,101873.25
2023-02-23T08:07:58.634Z,101874.84
2023-02-23T08:10:44.557Z,101876.53
2023-02-23T08:13:31.749Z,101881.63
2023-02-23T08:16:18.412Z,101879.72
2023-02-23T08:19:04.429Z,101883.13
2023-02-23T08:21:50.410Z,101882.91
2023-02-23T08:24:37.594Z,101879.09
2023-02-23T08:27:23.340Z,101892.94
2023-02-23T08:30:09.826Z,101894.56
2023-02-23T08:32:56.076Z,101890.84
2023-02-23T08:35:41.874Z,101899.41
2023-02-23T08:38:27.868Z,101898.25
2023-02-23T08:41:15.157Z,101905.13
2023-02-23T08:44:00.951Z,101912.78
2023-02-23T08:46:46.877Z,101912.56
2023-02-23T08:49:33.305Z,101920.41
2023-02-23T08:52:19.148Z,101921.25
2023-02-23T08:55:05.294Z,101922.72
2023-02-23T08:57:52.398Z,101917.94
2023-02-23T09:00:38.457Z,101923.22
2023-02-23T09:03:25.810Z,101920.81
2023-02-23T09:06:13.091Z,101922.28
2023-02-23T09:08:59.072Z,101924.81
2023-02-23T09:11:44.912Z,101925.47
2023-02-23T09:14:32.250Z,101923.78
2023-02-23T09:17:18.573Z,101921.22
2023-02-23T09:20:04.970Z,101929.59
2023-02-23T09:22:51.053Z,101923.34
2023-02-23T09:25:43.099Z,101923.34
2023-02-23T09:28:31.141Z,101918.16
2023-02-23T09:31:19.801Z,101915.50
2023-02-23T09:34:06.010Z,101917.97
2023-02-23T09:36:52.303Z,101917.97
2023-02-23T09:39:39.185Z,101913.41
2023-02-23T09:42:26.922Z,101911.91
2023-02-23T09:45:25.833Z,101915.22
2023-02-23T09:48:17.237Z,101907.91
2023-02-23T09:51:03.364Z,101907.78
2023-02-23T09:53:51.061Z,101914.88
2023-02-23T09:56:38.033Z,101905.56
2023-02-23T09:59:24.996Z,101913.81
2023-02-23T10:02:14.859Z,101911.28
2023-02-23T10:05:02.730Z,101907.47
2023-02-23T10:07:49.452Z,101912.13
2023-02-23T10:10:38.616Z,101905.69
2023-02-23T10:13:27.465Z,101904.84
2023-02-23T10:16:14.964Z,101898.59
2023-02-23T10:19:03.942Z,101899.44
2023-02-23T10:21:52.708Z,101903.03
2023-02-23T10:24:40.115Z,101898.59
2023-02-23T10:27:29.256Z,101898.59
2023-02-23T10:30:17.694Z,101902.19
2023-02-23T10:33:05.807Z,101895.09
2023-02-23T10:35:54.037Z,101902.91
2023-02-23T10:38:47.906Z,101901.13
2023-02-23T10:41:33.859Z,101903.75
2023-02-23T10:44:20.608Z,101899.19
2023-02-23T10:47:07.233Z,101892.22
2023-02-23T10:49:53.372Z,101894.53
2023-02-23T10:52:42.124Z,101894.31
2023-02-23T10:55:30.404Z,101889.84
2023-02-23T10:58:20.280Z,101888.78
2023-02-23T11:01:06.494Z,101888.59
2023-02-23T11:04:05.522Z,101881.38
2023-02-23T11:06:53.088Z,101883.78
2023-02-23T11:09:47.072Z,101884.41
2023-02-23T11:12:41.751Z,101880.06
2023-02-23T11:15:49.892Z,101995.38
2023-02-23T11:18:36.434Z,101944.91
2023-02-23T11:21:23.434Z,101935.69
2023-02-23T11:24:22.396Z,101923.06
2023-02-23T11:27:11.081Z,101915.63
2023-02-23T11:29:57.282Z,101905.88
2023-02-23T11:32:44.659Z,101904.59
2023-02-23T11:35:31.433Z,101897.38
2023-02-23T11:38:17.961Z,101885.81
2023-02-23T11:41:04.804Z,101884.38
2023-02-23T11:43:51.874Z,101879.69
2023-02-23T11:46:39.652Z,101872.47
2023-02-23T11:49:27.734Z,101863.47
2023-02-23T11:52:14.181Z,101854.75
2023-02-23T11:55:01.366Z,101850.41
2023-02-23T11:57:49.386Z,101837.91
2023-02-23T12:00:35.175Z,101828.22
2023-02-23T12:03:22.434Z,101819.66
2023-02-23T12:06:09.784Z,101810.63
2023-02-23T12:08:59.332Z,101801.00
2023-02-23T12:11:47.764Z,101790.19
2023-02-23T12:14:37.465Z,101792.31
2023-02-23T12:17:24.879Z,101786.56
2023-02-23T12:20:11.985Z,101781.75
2023-02-23T12:23:00.462Z,101774.41
2023-02-23T12:25:47.204Z,101775.00
2023-02-23T12:28:34.869Z,101765.84
2023-02-23T12:31:23.406Z,101767.56
2023-02-23T12:34:11.187Z,101773.13
2023-02-23T12:36:58.124Z,101770.47
2023-02-23T12:39:45.699Z,101775.53
2023-02-23T12:42:33.680Z,101773.34
2023-02-23T12:45:21.981Z,101762.38
2023-02-23T12:48:11.614Z,101760.09
2023-02-23T12:50:57.958Z,101748.75
2023-02-23T12:53:44.324Z,101741.75
2023-02-23T12:56:35.449Z,101728.38
2023-02-23T12:59:25.778Z,101718.47
2023-02-23T13:02:16.292Z,101714.91
2023-02-23T13:05:24.319Z,101708.25
2023-02-23T13:08:13.809Z,101704.38
2023-02-23T13:11:02.884Z,101702.94
2023-02-23T13:13:51.685Z,101693.28
2023-02-23T13:16:38.370Z,101704.38
2023-02-23T13:19:24.689Z,101699.06
2023-02-23T13:22:15.040Z,101695.69
2023-02-23T13:25:04.552Z,101697.38
2023-02-23T13:27:52.201Z,101694.59
2023-02-23T13:30:45.936Z,101688.44
2023-02-23T13:33:43.746Z,101688.56
2023-02-23T13:36:30.843Z,101691.09
2023-02-23T13:39:21.994Z,101699.56
2023-02-23T13:42:13.364Z,101698.59
2023-02-23T13:45:01.462Z,101704.38
2023-02-23T13:47:49.252Z,101705.09
2023-02-23T13:50:37.622Z,101704.25
2023-02-23T13:53:29.325Z,101707.63
2023-02-23T13:56:16.505Z,101701.25
2023-02-23T13:59:02.850Z,101696.19
2023-02-23T14:01:50.016Z,101694.97
2023-02-23T14:04:38.002Z,101693.19
2023-02-23T14:07:24.973Z,101691.63
2023-02-23T14:10:16.550Z,101694.59
2023-02-23T14:13:06.779Z,101685.81
2023-02-23T14:16:07.562Z,101680.88
2023-02-23T14:18:57.998Z,101686.03
2023-02-23T14:21:46.832Z,101687.25
2023-02-23T14:24:32.558Z,101682.56
2023-02-23T14:27:39.986Z,101685.78
2023-02-23T14:30:27.462Z,101673.03
2023-02-23T14:33:28.638Z,101686.75
2023-02-23T14:36:29.664Z,101690.25
2023-02-23T14:39:18.129Z,101691.81
2023-02-23T14:42:05.443Z,101694.94
2023-02-23T14:44:52.442Z,101695.78
2023-02-23T14:47:42.371Z,101700.47
2023-02-23T14:50:29.333Z,101704.94
2023-02-23T14:53:18.470Z,101719.03
2023-02-23T14:56:06.224Z,101720.00
2023-02-23T14:58:52.862Z,101713.59
2023-02-23T15:01:39.268Z,101723.47
2023-02-23T15:04:27.049Z,101735.03
2023-02-23T15:07:16.846Z,101718.25
2023-02-23T15:10:03.282Z,101733.44
2023-02-23T15:12:51.004Z,101722.31
2023-02-23T15:15:39.202Z,101723.00
2023-02-23T15:19:01.828Z,101726.50
2023-02-23T15:22:06.959Z,101722.28
2023-02-23T15:24:52.894Z,101731.19
2023-02-23T15:27:42.111Z,101734.28
2023-02-23T15:30:31.336Z,101739.81
2023-02-23T15:33:23.513Z,101745.56
2023-02-23T15:36:11.413Z,101742.41
2023-02-23T15:38:58.829Z,101751.53
2023-02-23T15:41:45.329Z,101743.81
2023-02-23T15:44:43.585Z,101756.09
2023-02-23T15:47:34.361Z,101763.31
2023-02-23T15:50:35.886Z,101768.91
2023-02-23T15:53:25.354Z,101763.00
2023-02-23T15:56:12.507Z,101770.41
2023-02-23T15:58:59.218Z,101774.22
2023-02-23T16:01:46.243Z,101777.22
2023-02-23T16:04:36.683Z,101779.66
2023-02-23T16:07:23.658Z,101783.81
2023-02-23T16:10:19.609Z,101790.13
2023-02-23T16:13:05.768Z,101784.84
2023-02-23T16:15:52.523Z,101788.88
2023-02-23T16:18:39.537Z,101793.13
2023-02-23T16:21:26.966Z,101796.72
2023-02-23T16:24:13.314Z,101802.34
2023-02-23T16:26:59.920Z,101805.22
2023-02-23T16:29:46.390Z,101806.28
2023-02-23T16:32:37.549Z,101808.38
2023-02-23T16:35:23.638Z,101811.13
2023-02-23T16:38:15.055Z,101821.94
2023-02-23T16:41:01.195Z,101821.94
2023-02-23T16:43:47.619Z,101833.38
2023-02-23T16:46:37.600Z,101825.66
2023-02-23T16:49:24.150Z,101833.78
2023-02-23T16:52:15.331Z,101838.25
2023-02-23T16:55:04.613Z,101845.34
2023-02-23T16:57:51.593Z,101845.56
2023-02-23T17:00:37.397Z,101857.28
2023-02-23T17:03:24.252Z,101859.19
2023-02-23T17:06:12.301Z,101864.38
2023-02-23T17:08:58.774Z,101865.59
2023-02-23T17:11:47.048Z,101871.75
2023-02-23T17:14:33.034Z,101867.63
2023-02-23T17:17:19.646Z,101879.25
2023-02-23T17:20:12.414Z,101877.56
2023-02-23T17:22:58.786Z,101873.31
2023-02-23T17:25:44.847Z,101878.63
2023-02-23T17:28:32.098Z,101878.81
2023-02-23T17:31:18.315Z,101889.28
2023-02-23T17:34:04.409Z,101884.38
2023-02-23T17:36:50.113Z,101889.56
2023-02-23T17:39:37.345Z,101893.59
2023-02-23T17:42:24.363Z,101890.00
2023-02-23T17:45:11.751Z,101885.13
2023-02-23T17:47:57.589Z,101878.13
2023-02-23T17:50:43.793Z,101887.03
2023-02-23T17:53:29.761Z,101888.88
2023-02-23T17:56:17.624Z,101888.03
2023-02-23T17:59:04.552Z,101890.03
2023-02-23T18:01:51.994Z,101891.84
2023-02-23T18:04:37.797Z,101894.59
2023-02-23T18:07:23.559Z,101896.28
2023-02-23T18:10:09.948Z,101902.91
2023-02-23T18:12:56.241Z,101900.47
2023-02-23T18:15:42.235Z,101900.66
2023-02-23T18:18:29.714Z,101911.22
2023-02-23T18:21:16.372Z,101910.47
2023-02-23T18:24:02.305Z,101915.66
2023-02-23T18:26:47.987Z,101918.41
2023-02-23T18:29:34.847Z,101915.03
2023-02-23T18:32:20.918Z,101924.19
2023-02-23T18:35:08.558Z,101917.97
2023-02-23T18:37:54.596Z,101915.22
2023-02-23T18:40:40.854Z,101919.97
2023-02-23T18:43:26.558Z,101929.59
2023-02-23T18:46:13.023Z,101935.06
2023-02-23T18:48:58.709Z,101927.13
2023-02-23T18:51:45.751Z,101937.72
2023-02-23T18:54:31.723Z,101939.19
2023-02-23T18:57:17.531Z,101945.44
2023-02-23T19:00:07.206Z,101950.16
2023-02-23T19:02:53.695Z,101953.72
2023-02-23T19:05:45.772Z,101961.84
2023-02-23T19:08:32.931Z,101964.25
2023-02-23T19:11:19.057Z,101969.41
2023-02-23T19:14:06.457Z,101964.59
2023-02-23T19:16:52.564Z,101953.56
2023-02-23T19:19:38.355Z,101959.81
2023-02-23T19:22:24.309Z,101958.09
2023-02-23T19:25:15.175Z,101945.56
2023-02-23T19:28:01.042Z,101938.88
2023-02-23T19:30:48.972Z,101930.94
2023-02-23T19:33:35.565Z,101923.97
2023-02-23T19:36:22.636Z,101911.53
2023-02-23T19:39:12.722Z,101909.06
2023-02-23T19:42:00.115Z,101902.66
2023-02-23T19:44:45.951Z,101889.00
2023-02-23T19:47:31.762Z,101893.44
2023-02-23T19:50:18.796Z,101875.16
2023-02-23T19:53:05.074Z,101881.56
2023-02-23T19:55:58.844Z,101885.31
2023-02-23T19:58:46.783Z,101876.84
2023-02-23T20:01:32.822Z,101866.28
2023-02-23T20:04:18.868Z,101857.38
2023-02-23T20:07:04.584Z,101846.47
2023-02-23T20:09:50.785Z,101833.56
2023-02-23T20:12:36.967Z,101833.25
2023-02-23T20:15:24.104Z,101840.03
2023-02-23T20:18:10.214Z,101831.00
2023-02-23T20:20:55.835Z,101815.28
2023-02-23T20:23:41.677Z,101814.59
2023-02-23T20:26:29.025Z,101811.28
2023-02-23T20:29:18.047Z,101804.59
2023-02-23T20:32:06.711Z,101805.25
2023-02-23T20:34:52.622Z,101802.72
2023-02-23T20:37:38.699Z,101798.00
2023-02-23T20:40:24.749Z,101792.66
2023-02-23T20:43:10.500Z,101791.53
2023-02-23T20:45:57.282Z,101789.16
2023-02-23T20:48:44.525Z,101785.59
2023-02-23T20:51:30.772Z,101795.44
2023-02-23T20:54:16.973Z,101782.72
2023-02-23T20:57:07.630Z,101781.97
2023-02-23T20:59:53.500Z,101783.97
2023-02-23T21:02:40.766Z,101785.00
2023-02-23T21:05:28.423Z,101787.88
2023-02-23T21:08:15.854Z,101788.44
2023-02-23T21:11:05.009Z,101791.91
2023-02-23T21:13:51.144Z,101788.44
2023-02-23T21:16:41.568Z,101800.00
2023-02-23T21:19:30.861Z,101799.72
2023-02-23T21:22:20.467Z,101805.09
2023-02-23T21:25:10.429Z,101793.97
2023-02-23T21:28:06.799Z,101801.19
2023-02-23T21:31:01.532Z,101791.09
2023-02-23T21:33:47.527Z,101794.31
2023-02-23T21:36:42.386Z,101788.09
2023-02-23T21:39:31.807Z,101790.66
2023-02-23T21:42:24.148Z,101786.50
2023-02-23T21:45:13.269Z,101779.25
2023-02-23T21:48:04.968Z,101770.03
2023-02-23T21:50:51.399Z,101772.38
2023-02-23T21:53:38.284Z,101775.47
2023-02-23T21:56:25.620Z,101778.13
2023-02-23T21:59:11.598Z,101778.97
2023-02-23T22:01:57.475Z,101778.88
2023-02-23T22:04:46.005Z,101777.09
2023-02-23T22:07:32.307Z,101773.03
2023-02-23T22:10:18.498Z,101769.69
2023-02-23T22:13:05.602Z,101765.13
2023-02-23T22:15:51.510Z,101761.56
2023-02-23T22:18:37.275Z,101762.31
2023-02-23T22:21:23.500Z,101761.47
2023-02-23T22:24:10.208Z,101760.81
2023-02-23T22:26:55.934Z,101765.03
2023-02-23T22:29:43.129Z,101765.88
2023-02-23T22:32:32.446Z,101764.28
2023-02-23T22:35:18.872Z,101757.75
2023-02-23T22:38:04.702Z,101761.97
2023-02-23T22:40:50.402Z,101756.81
2023-02-23T22:43:36.335Z,101755.97
2023-02-23T22:46:23.838Z,101759.63
2023-02-23T22:49:10.540Z,101754.13
2023-02-23T22:51:56.195Z,101754.72
2023-02-23T22:54:43.666Z,101744.94
2023-02-23T22:57:29.398Z,101746.13
2023-02-23T23:00:16.402Z,101745.19
2023-02-23T23:03:05.135Z,101736.63
2023-02-23T23:05:51.416Z,101721.78
2023-02-23T23:08:38.554Z,101719.31
2023-02-23T23:11:25.883Z,101708.03
2023-02-23T23:14:11.976Z,101706.16
2023-02-23T23:16:58.139Z,101694.97
2023-02-23T23:19:46.030Z,101696.19
2023-02-23T23:22:35.344Z,101689.03
2023-02-23T23:25:23.482Z,101690.06
2023-02-23T23:28:12.326Z,101686.66
2023-02-23T23:30:58.351Z,101678.84
2023-02-23T23:33:47.922Z,101678.69
2023-02-23T23:36:37.148Z,101671.13
2023-02-23T23:39:23.564Z,101667.75
2023-02-23T23:42:09.197Z,101675.53
2023-02-23T23:44:56.854Z,101670.56
2023-02-23T23:47:42.940Z,101665.28
2023-02-23T23:50:28.858Z,101656.03
2023-02-23T23:53:15.927Z,101659.47
2023-02-23T23:56:06.295Z,101649.88
2023-02-23T23:58:53.687Z,101645.50
